sensor_id;sensor_type;location;lat;lon;timestamp;temperature;humidity
52381;DHT22;38310;52.796;6.942;2022-08-21T00:00:17;16.50;99.90
52381;DHT22;38310;52.796;6.942;2022-08-21T00:02:55;16.40;99.90
52381;DHT22;38310;52.796;6.942;2022-08-21T00:05:21;16.40;99.90
52381;DHT22;38310;52.796;6.942;2022-08-21T00:07:47;16.30;99.90
52381;DHT22;38310;52.796;6.942;2022-08-21T00:10:14;16.30;99.90
52381;DHT22;38310;52.796;6.942;2022-08-21T00:12:41;16.20;99.90
52381;DHT22;38310;52.796;6.942;2022-08-21T00:15:09;16.20;99.90
52381;DHT22;38310;52.796;6.942;2022-08-21T00:17:35;16.10;99.90
52381;DHT22;38310;52.796;6.942;2022-08-21T00:20:06;16.10;99.90
52381;DHT22;38310;52.796;6.942;2022-08-21T00:22:35;16.10;99.90
52381;DHT22;38310;52.796;6.942;2022-08-21T00:25:02;16.10;99.90
52381;DHT22;38310;52.796;6.942;2022-08-21T00:27:28;16.00;99.90
52381;DHT22;38310;52.796;6.942;2022-08-21T00:29:53;15.90;99.90
52381;DHT22;38310;52.796;6.942;2022-08-21T00:32:24;15.90;99.90
52381;DHT22;38310;52.796;6.942;2022-08-21T00:34:51;15.90;99.90
52381;DHT22;38310;52.796;6.942;2022-08-21T00:37:17;15.70;99.90
52381;DHT22;38310;52.796;6.942;2022-08-21T00:39:42;16.00;99.90
52381;DHT22;38310;52.796;6.942;2022-08-21T00:42:09;15.60;99.90
52381;DHT22;38310;52.796;6.942;2022-08-21T00:44:35;15.70;99.90
52381;DHT22;38310;52.796;6.942;2022-08-21T00:47:01;15.60;99.90
52381;DHT22;38310;52.796;6.942;2022-08-21T00:49:27;15.60;99.90
52381;DHT22;38310;52.796;6.942;2022-08-21T00:51:55;15.50;99.90
52381;DHT22;38310;52.796;6.942;2022-08-21T00:54:25;15.50;99.90
52381;DHT22;38310;52.796;6.942;2022-08-21T00:56:57;15.50;99.90
52381;DHT22;38310;52.796;6.942;2022-08-21T00:59:23;15.40;99.90
52381;DHT22;38310;52.796;6.942;2022-08-21T01:01:50;15.40;99.90
52381;DHT22;38310;52.796;6.942;2022-08-21T01:04:17;15.40;99.90
52381;DHT22;38310;52.796;6.942;2022-08-21T01:06:43;15.40;99.90
52381;DHT22;38310;52.796;6.942;2022-08-21T01:09:10;15.30;99.90
52381;DHT22;38310;52.796;6.942;2022-08-21T01:11:36;15.30;99.90
52381;DHT22;38310;52.796;6.942;2022-08-21T01:14:02;15.30;99.90
52381;DHT22;38310;52.796;6.942;2022-08-21T01:16:28;15.30;99.90
52381;DHT22;38310;52.796;6.942;2022-08-21T01:18:54;15.30;99.90
52381;DHT22;38310;52.796;6.942;2022-08-21T01:21:25;15.20;99.90
52381;DHT22;38310;52.796;6.942;2022-08-21T01:23:53;15.20;99.90
52381;DHT22;38310;52.796;6.942;2022-08-21T01:26:23;15.20;99.90
52381;DHT22;38310;52.796;6.942;2022-08-21T01:29:07;15.20;99.90
52381;DHT22;38310;52.796;6.942;2022-08-21T01:31:35;15.20;99.90
52381;DHT22;38310;52.796;6.942;2022-08-21T01:34:03;15.20;99.90
52381;DHT22;38310;52.796;6.942;2022-08-21T01:36:29;15.20;99.90
52381;DHT22;38310;52.796;6.942;2022-08-21T01:38:55;15.20;99.90
52381;DHT22;38310;52.796;6.942;2022-08-21T01:41:21;15.20;99.90
52381;DHT22;38310;52.796;6.942;2022-08-21T01:43:47;15.20;99.90
52381;DHT22;38310;52.796;6.942;2022-08-21T01:46:13;15.20;99.90
52381;DHT22;38310;52.796;6.942;2022-08-21T01:48:39;15.10;99.90
52381;DHT22;38310;52.796;6.942;2022-08-21T01:51:05;15.70;99.90
52381;DHT22;38310;52.796;6.942;2022-08-21T01:53:31;15.20;99.90
52381;DHT22;38310;52.796;6.942;2022-08-21T01:55:59;15.30;99.90
52381;DHT22;38310;52.796;6.942;2022-08-21T01:58:25;15.10;99.90
52381;DHT22;38310;52.796;6.942;2022-08-21T02:00:51;15.10;99.90
52381;DHT22;38310;52.796;6.942;2022-08-21T02:03:17;15.10;99.90
52381;DHT22;38310;52.796;6.942;2022-08-21T02:05:43;15.10;99.90
52381;DHT22;38310;52.796;6.942;2022-08-21T02:08:08;15.10;99.90
52381;DHT22;38310;52.796;6.942;2022-08-21T02:10:35;15.10;99.90
52381;DHT22;38310;52.796;6.942;2022-08-21T02:13:00;15.10;99.90
52381;DHT22;38310;52.796;6.942;2022-08-21T02:15:27;15.10;99.90
52381;DHT22;38310;52.796;6.942;2022-08-21T02:17:59;15.10;99.90
52381;DHT22;38310;52.796;6.942;2022-08-21T02:22:51;15.10;99.90
52381;DHT22;38310;52.796;6.942;2022-08-21T02:25:19;15.10;99.90
52381;DHT22;38310;52.796;6.942;2022-08-21T02:27:46;15.10;99.90
52381;DHT22;38310;52.796;6.942;2022-08-21T02:30:34;15.10;99.90
52381;DHT22;38310;52.796;6.942;2022-08-21T02:33:03;15.10;99.90
52381;DHT22;38310;52.796;6.942;2022-08-21T02:35:28;15.10;99.90
52381;DHT22;38310;52.796;6.942;2022-08-21T02:38:00;15.00;99.90
52381;DHT22;38310;52.796;6.942;2022-08-21T02:40:29;15.10;99.90
52381;DHT22;38310;52.796;6.942;2022-08-21T02:42:57;15.10;99.90
52381;DHT22;38310;52.796;6.942;2022-08-21T02:45:23;15.10;99.90
52381;DHT22;38310;52.796;6.942;2022-08-21T02:47:50;15.10;99.90
52381;DHT22;38310;52.796;6.942;2022-08-21T02:50:20;15.10;99.90
52381;DHT22;38310;52.796;6.942;2022-08-21T02:52:46;15.10;99.90
52381;DHT22;38310;52.796;6.942;2022-08-21T02:55:12;15.10;99.90
52381;DHT22;38310;52.796;6.942;2022-08-21T02:57:38;15.10;99.90
52381;DHT22;38310;52.796;6.942;2022-08-21T03:00:05;15.00;99.90
52381;DHT22;38310;52.796;6.942;2022-08-21T03:02:32;15.00;99.90
52381;DHT22;38310;52.796;6.942;2022-08-21T03:04:58;15.00;99.90
52381;DHT22;38310;52.796;6.942;2022-08-21T03:07:24;14.90;99.90
52381;DHT22;38310;52.796;6.942;2022-08-21T03:09:49;14.90;99.90
52381;DHT22;38310;52.796;6.942;2022-08-21T03:12:15;14.90;99.90
52381;DHT22;38310;52.796;6.942;2022-08-21T03:14:41;14.90;99.90
52381;DHT22;38310;52.796;6.942;2022-08-21T03:17:06;14.80;99.90
52381;DHT22;38310;52.796;6.942;2022-08-21T03:19:32;14.90;99.90
52381;DHT22;38310;52.796;6.942;2022-08-21T03:21:58;14.90;99.90
52381;DHT22;38310;52.796;6.942;2022-08-21T03:24:23;14.80;99.90
52381;DHT22;38310;52.796;6.942;2022-08-21T03:27:31;14.80;99.90
52381;DHT22;38310;52.796;6.942;2022-08-21T03:29:59;14.80;99.90
52381;DHT22;38310;52.796;6.942;2022-08-21T03:32:26;14.80;99.90
52381;DHT22;38310;52.796;6.942;2022-08-21T03:34:52;14.80;99.90
52381;DHT22;38310;52.796;6.942;2022-08-21T03:37:17;14.70;99.90
52381;DHT22;38310;52.796;6.942;2022-08-21T03:39:43;14.70;99.90
52381;DHT22;38310;52.796;6.942;2022-08-21T03:42:10;14.70;99.90
52381;DHT22;38310;52.796;6.942;2022-08-21T03:44:36;14.70;99.90
52381;DHT22;38310;52.796;6.942;2022-08-21T03:47:03;14.60;99.90
52381;DHT22;38310;52.796;6.942;2022-08-21T03:49:29;14.60;99.90
52381;DHT22;38310;52.796;6.942;2022-08-21T03:51:55;14.70;99.90
52381;DHT22;38310;52.796;6.942;2022-08-21T03:54:21;14.60;99.90
52381;DHT22;38310;52.796;6.942;2022-08-21T03:56:47;14.60;99.90
52381;DHT22;38310;52.796;6.942;2022-08-21T03:59:13;14.60;99.90
52381;DHT22;38310;52.796;6.942;2022-08-21T04:01:39;14.60;99.90
52381;DHT22;38310;52.796;6.942;2022-08-21T04:04:05;14.60;99.90
52381;DHT22;38310;52.796;6.942;2022-08-21T04:06:31;14.60;99.90
52381;DHT22;38310;52.796;6.942;2022-08-21T04:08:57;14.60;99.90
52381;DHT22;38310;52.796;6.942;2022-08-21T04:11:23;14.70;99.90
52381;DHT22;38310;52.796;6.942;2022-08-21T04:13:49;14.80;99.90
52381;DHT22;38310;52.796;6.942;2022-08-21T04:16:15;14.70;99.90
52381;DHT22;38310;52.796;6.942;2022-08-21T04:18:41;14.60;99.90
52381;DHT22;38310;52.796;6.942;2022-08-21T04:21:09;14.70;99.90
52381;DHT22;38310;52.796;6.942;2022-08-21T04:23:36;14.60;99.90
52381;DHT22;38310;52.796;6.942;2022-08-21T04:26:01;15.00;99.90
52381;DHT22;38310;52.796;6.942;2022-08-21T04:28:27;15.40;99.90
52381;DHT22;38310;52.796;6.942;2022-08-21T04:30:54;14.60;99.90
52381;DHT22;38310;52.796;6.942;2022-08-21T04:33:21;14.60;99.90
52381;DHT22;38310;52.796;6.942;2022-08-21T04:35:47;14.50;99.90
52381;DHT22;38310;52.796;6.942;2022-08-21T04:38:14;14.50;99.90
52381;DHT22;38310;52.796;6.942;2022-08-21T04:40:39;14.50;99.90
52381;DHT22;38310;52.796;6.942;2022-08-21T04:43:09;15.10;99.90
52381;DHT22;38310;52.796;6.942;2022-08-21T04:45:40;14.40;99.90
52381;DHT22;38310;52.796;6.942;2022-08-21T04:48:09;14.50;99.90
52381;DHT22;38310;52.796;6.942;2022-08-21T04:53:01;14.40;99.90
52381;DHT22;38310;52.796;6.942;2022-08-21T04:55:27;14.50;99.90
52381;DHT22;38310;52.796;6.942;2022-08-21T04:57:55;14.50;99.90
52381;DHT22;38310;52.796;6.942;2022-08-21T05:00:22;14.40;99.90
52381;DHT22;38310;52.796;6.942;2022-08-21T05:02:49;14.50;99.90
52381;DHT22;38310;52.796;6.942;2022-08-21T05:05:19;14.50;99.90
52381;DHT22;38310;52.796;6.942;2022-08-21T05:07:46;14.50;99.90
52381;DHT22;38310;52.796;6.942;2022-08-21T05:10:13;14.50;99.90
52381;DHT22;38310;52.796;6.942;2022-08-21T05:12:40;14.50;99.90
52381;DHT22;38310;52.796;6.942;2022-08-21T05:15:08;15.10;99.90
52381;DHT22;38310;52.796;6.942;2022-08-21T05:17:34;14.60;99.90
52381;DHT22;38310;52.796;6.942;2022-08-21T05:19:59;14.60;99.90
52381;DHT22;38310;52.796;6.942;2022-08-21T05:22:25;14.70;99.90
52381;DHT22;38310;52.796;6.942;2022-08-21T05:24:51;14.70;99.90
52381;DHT22;38310;52.796;6.942;2022-08-21T05:27:18;14.80;99.90
52381;DHT22;38310;52.796;6.942;2022-08-21T05:29:43;15.10;99.90
52381;DHT22;38310;52.796;6.942;2022-08-21T05:32:10;14.90;99.90
52381;DHT22;38310;52.796;6.942;2022-08-21T05:34:36;14.90;99.90
52381;DHT22;38310;52.796;6.942;2022-08-21T05:37:02;15.00;99.90
52381;DHT22;38310;52.796;6.942;2022-08-21T05:39:28;15.10;99.90
52381;DHT22;38310;52.796;6.942;2022-08-21T05:41:54;15.10;99.90
52381;DHT22;38310;52.796;6.942;2022-08-21T05:44:19;15.10;99.90
52381;DHT22;38310;52.796;6.942;2022-08-21T05:46:45;15.60;99.90
52381;DHT22;38310;52.796;6.942;2022-08-21T05:49:11;15.30;99.90
52381;DHT22;38310;52.796;6.942;2022-08-21T05:51:40;15.30;99.90
52381;DHT22;38310;52.796;6.942;2022-08-21T05:54:09;15.40;99.90
52381;DHT22;38310;52.796;6.942;2022-08-21T05:56:35;15.50;99.90
52381;DHT22;38310;52.796;6.942;2022-08-21T05:59:01;15.50;99.90
52381;DHT22;38310;52.796;6.942;2022-08-21T06:01:26;15.60;99.90
52381;DHT22;38310;52.796;6.942;2022-08-21T06:03:52;15.70;99.90
52381;DHT22;38310;52.796;6.942;2022-08-21T06:06:18;15.80;99.90
52381;DHT22;38310;52.796;6.942;2022-08-21T06:08:44;15.80;99.90
52381;DHT22;38310;52.796;6.942;2022-08-21T06:11:10;15.90;99.90
52381;DHT22;38310;52.796;6.942;2022-08-21T06:13:37;16.00;99.90
52381;DHT22;38310;52.796;6.942;2022-08-21T06:18:41;15.90;99.90
52381;DHT22;38310;52.796;6.942;2022-08-21T06:21:07;16.20;99.90
52381;DHT22;38310;52.796;6.942;2022-08-21T06:23:34;16.30;99.90
52381;DHT22;38310;52.796;6.942;2022-08-21T06:26:05;16.40;99.90
52381;DHT22;38310;52.796;6.942;2022-08-21T06:28:32;16.50;99.90
52381;DHT22;38310;52.796;6.942;2022-08-21T06:30:58;16.50;99.90
52381;DHT22;38310;52.796;6.942;2022-08-21T06:33:24;16.60;99.90
52381;DHT22;38310;52.796;6.942;2022-08-21T06:35:50;17.10;99.90
52381;DHT22;38310;52.796;6.942;2022-08-21T06:38:16;17.90;99.90
52381;DHT22;38310;52.796;6.942;2022-08-21T06:40:42;16.90;99.90
52381;DHT22;38310;52.796;6.942;2022-08-21T06:43:13;17.00;99.90
52381;DHT22;38310;52.796;6.942;2022-08-21T06:45:39;17.10;99.90
52381;DHT22;38310;52.796;6.942;2022-08-21T06:48:05;17.10;99.90
52381;DHT22;38310;52.796;6.942;2022-08-21T06:50:33;17.20;99.90
52381;DHT22;38310;52.796;6.942;2022-08-21T06:53:07;17.30;99.90
52381;DHT22;38310;52.796;6.942;2022-08-21T06:55:34;17.40;99.90
52381;DHT22;38310;52.796;6.942;2022-08-21T06:58:00;17.40;99.90
52381;DHT22;38310;52.796;6.942;2022-08-21T07:00:26;17.50;99.90
52381;DHT22;38310;52.796;6.942;2022-08-21T07:02:51;17.50;99.90
52381;DHT22;38310;52.796;6.942;2022-08-21T07:05:17;17.70;99.90
52381;DHT22;38310;52.796;6.942;2022-08-21T07:07:43;17.80;99.90
52381;DHT22;38310;52.796;6.942;2022-08-21T07:10:10;17.80;99.90
52381;DHT22;38310;52.796;6.942;2022-08-21T07:12:36;17.90;99.90
52381;DHT22;38310;52.796;6.942;2022-08-21T07:15:02;18.00;99.90
52381;DHT22;38310;52.796;6.942;2022-08-21T07:17:27;18.10;99.90
52381;DHT22;38310;52.796;6.942;2022-08-21T07:19:53;18.20;99.90
52381;DHT22;38310;52.796;6.942;2022-08-21T07:22:20;18.30;99.90
52381;DHT22;38310;52.796;6.942;2022-08-21T07:24:46;18.40;99.90
52381;DHT22;38310;52.796;6.942;2022-08-21T07:30:06;18.60;99.90
52381;DHT22;38310;52.796;6.942;2022-08-21T07:32:32;18.70;99.90
52381;DHT22;38310;52.796;6.942;2022-08-21T07:34:58;18.70;99.90
52381;DHT22;38310;52.796;6.942;2022-08-21T07:37:24;18.90;99.90
52381;DHT22;38310;52.796;6.942;2022-08-21T07:39:50;19.00;99.90
52381;DHT22;38310;52.796;6.942;2022-08-21T07:42:17;19.10;99.90
52381;DHT22;38310;52.796;6.942;2022-08-21T07:44:43;19.10;99.90
52381;DHT22;38310;52.796;6.942;2022-08-21T07:47:09;19.30;99.90
52381;DHT22;38310;52.796;6.942;2022-08-21T07:49:34;19.50;99.90
52381;DHT22;38310;52.796;6.942;2022-08-21T07:52:00;19.60;99.90
52381;DHT22;38310;52.796;6.942;2022-08-21T07:54:27;19.70;99.90
52381;DHT22;38310;52.796;6.942;2022-08-21T07:56:52;19.80;99.90
52381;DHT22;38310;52.796;6.942;2022-08-21T07:59:18;19.90;99.90
52381;DHT22;38310;52.796;6.942;2022-08-21T08:01:44;20.00;99.90
52381;DHT22;38310;52.796;6.942;2022-08-21T08:04:09;20.20;99.90
52381;DHT22;38310;52.796;6.942;2022-08-21T08:06:35;20.30;99.90
52381;DHT22;38310;52.796;6.942;2022-08-21T08:09:02;20.40;99.90
52381;DHT22;38310;52.796;6.942;2022-08-21T08:11:30;20.40;99.90
52381;DHT22;38310;52.796;6.942;2022-08-21T08:13:56;20.60;99.90
52381;DHT22;38310;52.796;6.942;2022-08-21T08:16:25;20.70;99.90
52381;DHT22;38310;52.796;6.942;2022-08-21T08:18:51;20.70;99.90
52381;DHT22;38310;52.796;6.942;2022-08-21T08:21:18;20.80;99.90
52381;DHT22;38310;52.796;6.942;2022-08-21T08:23:46;20.90;99.90
52381;DHT22;38310;52.796;6.942;2022-08-21T08:26:12;21.00;99.90
52381;DHT22;38310;52.796;6.942;2022-08-21T08:28:39;21.10;99.90
52381;DHT22;38310;52.796;6.942;2022-08-21T08:31:05;21.10;99.90
52381;DHT22;38310;52.796;6.942;2022-08-21T08:33:31;21.20;99.90
52381;DHT22;38310;52.796;6.942;2022-08-21T08:35:56;21.30;99.90
52381;DHT22;38310;52.796;6.942;2022-08-21T08:38:24;21.30;99.90
52381;DHT22;38310;52.796;6.942;2022-08-21T08:43:40;21.60;99.90
52381;DHT22;38310;52.796;6.942;2022-08-21T08:46:13;21.70;99.90
52381;DHT22;38310;52.796;6.942;2022-08-21T08:48:58;21.70;99.90
52381;DHT22;38310;52.796;6.942;2022-08-21T08:54:11;22.00;99.90
52381;DHT22;38310;52.796;6.942;2022-08-21T08:56:39;21.90;99.90
52381;DHT22;38310;52.796;6.942;2022-08-21T08:59:41;22.00;99.90
52381;DHT22;38310;52.796;6.942;2022-08-21T09:02:12;22.10;99.90
52381;DHT22;38310;52.796;6.942;2022-08-21T09:04:39;22.20;99.90
52381;DHT22;38310;52.796;6.942;2022-08-21T09:12:38;22.40;99.90
52381;DHT22;38310;52.796;6.942;2022-08-21T09:21:03;22.30;99.90
52381;DHT22;38310;52.796;6.942;2022-08-21T09:23:43;22.20;99.90
52381;DHT22;38310;52.796;6.942;2022-08-21T09:26:20;22.30;99.90
52381;DHT22;38310;52.796;6.942;2022-08-21T09:28:52;22.40;99.90
52381;DHT22;38310;52.796;6.942;2022-08-21T09:31:27;22.60;99.90
52381;DHT22;38310;52.796;6.942;2022-08-21T09:34:02;22.80;99.90
52381;DHT22;38310;52.796;6.942;2022-08-21T09:36:46;23.10;99.90
52381;DHT22;38310;52.796;6.942;2022-08-21T09:39:24;23.30;99.90
52381;DHT22;38310;52.796;6.942;2022-08-21T09:42:04;23.60;99.90
52381;DHT22;38310;52.796;6.942;2022-08-21T09:44:32;23.50;99.90
52381;DHT22;38310;52.796;6.942;2022-08-21T09:47:02;23.40;99.90
52381;DHT22;38310;52.796;6.942;2022-08-21T09:49:35;23.00;99.90
52381;DHT22;38310;52.796;6.942;2022-08-21T09:52:04;23.10;99.90
52381;DHT22;38310;52.796;6.942;2022-08-21T09:54:36;22.80;99.90
52381;DHT22;38310;52.796;6.942;2022-08-21T09:57:25;23.20;99.90
52381;DHT22;38310;52.796;6.942;2022-08-21T10:00:31;23.20;99.90
52381;DHT22;38310;52.796;6.942;2022-08-21T10:03:17;23.30;99.90
52381;DHT22;38310;52.796;6.942;2022-08-21T10:06:19;23.30;99.90
52381;DHT22;38310;52.796;6.942;2022-08-21T10:08:45;23.70;99.90
52381;DHT22;38310;52.796;6.942;2022-08-21T10:11:15;24.00;99.90
52381;DHT22;38310;52.796;6.942;2022-08-21T10:14:20;24.40;99.90
52381;DHT22;38310;52.796;6.942;2022-08-21T10:16:54;24.60;99.90
52381;DHT22;38310;52.796;6.942;2022-08-21T10:19:31;24.60;99.90
52381;DHT22;38310;52.796;6.942;2022-08-21T10:25:31;25.30;99.90
52381;DHT22;38310;52.796;6.942;2022-08-21T10:28:31;25.20;99.90
52381;DHT22;38310;52.796;6.942;2022-08-21T10:31:34;25.10;99.90
52381;DHT22;38310;52.796;6.942;2022-08-21T10:34:22;24.80;99.90
52381;DHT22;38310;52.796;6.942;2022-08-21T10:36:59;24.80;99.90
52381;DHT22;38310;52.796;6.942;2022-08-21T10:39:43;24.80;99.90
52381;DHT22;38310;52.796;6.942;2022-08-21T10:42:38;25.00;99.90
52381;DHT22;38310;52.796;6.942;2022-08-21T10:45:14;25.70;99.90
52381;DHT22;38310;52.796;6.942;2022-08-21T10:47:56;25.80;99.90
52381;DHT22;38310;52.796;6.942;2022-08-21T10:53:22;25.20;99.90
52381;DHT22;38310;52.796;6.942;2022-08-21T10:56:05;24.70;99.90
52381;DHT22;38310;52.796;6.942;2022-08-21T10:58:51;24.90;99.90
52381;DHT22;38310;52.796;6.942;2022-08-21T11:01:42;25.30;99.90
52381;DHT22;38310;52.796;6.942;2022-08-21T11:06:53;26.00;99.90
52381;DHT22;38310;52.796;6.942;2022-08-21T11:09:24;26.10;99.90
52381;DHT22;38310;52.796;6.942;2022-08-21T11:12:20;25.70;99.90
52381;DHT22;38310;52.796;6.942;2022-08-21T11:16:00;26.40;99.90
52381;DHT22;38310;52.796;6.942;2022-08-21T11:20:47;26.80;99.80
52381;DHT22;38310;52.796;6.942;2022-08-21T11:23:26;27.10;99.70
52381;DHT22;38310;52.796;6.942;2022-08-21T11:26:02;27.10;97.80
52381;DHT22;38310;52.796;6.942;2022-08-21T11:28:34;27.10;98.00
52381;DHT22;38310;52.796;6.942;2022-08-21T11:39:15;28.50;97.60
52381;DHT22;38310;52.796;6.942;2022-08-21T11:41:59;28.70;96.20
52381;DHT22;38310;52.796;6.942;2022-08-21T11:44:52;28.60;95.30
52381;DHT22;38310;52.796;6.942;2022-08-21T11:47:46;28.50;95.90
52381;DHT22;38310;52.796;6.942;2022-08-21T11:50:18;28.80;96.40
52381;DHT22;38310;52.796;6.942;2022-08-21T11:52:56;29.50;96.70
52381;DHT22;38310;52.796;6.942;2022-08-21T11:55:36;29.10;95.20
52381;DHT22;38310;52.796;6.942;2022-08-21T11:58:25;29.90;95.10
52381;DHT22;38310;52.796;6.942;2022-08-21T12:00:56;30.40;94.10
52381;DHT22;38310;52.796;6.942;2022-08-21T12:03:33;29.90;93.00
52381;DHT22;38310;52.796;6.942;2022-08-21T12:06:32;30.10;93.40
52381;DHT22;38310;52.796;6.942;2022-08-21T12:12:02;28.70;93.40
52381;DHT22;38310;52.796;6.942;2022-08-21T12:14:44;28.30;91.30
52381;DHT22;38310;52.796;6.942;2022-08-21T12:17:19;29.00;91.20
52381;DHT22;38310;52.796;6.942;2022-08-21T12:19:45;28.70;90.90
52381;DHT22;38310;52.796;6.942;2022-08-21T12:22:22;28.70;92.40
52381;DHT22;38310;52.796;6.942;2022-08-21T12:24:49;28.80;92.70
52381;DHT22;38310;52.796;6.942;2022-08-21T12:27:27;28.70;93.40
52381;DHT22;38310;52.796;6.942;2022-08-21T12:29:59;29.20;92.20
52381;DHT22;38310;52.796;6.942;2022-08-21T12:32:53;30.00;92.70
52381;DHT22;38310;52.796;6.942;2022-08-21T12:35:25;30.50;92.30
52381;DHT22;38310;52.796;6.942;2022-08-21T12:38:17;30.40;90.20
52381;DHT22;38310;52.796;6.942;2022-08-21T12:41:05;29.80;89.60
52381;DHT22;38310;52.796;6.942;2022-08-21T12:45:59;28.40;91.30
52381;DHT22;38310;52.796;6.942;2022-08-21T12:48:51;28.90;91.20
52381;DHT22;38310;52.796;6.942;2022-08-21T12:51:57;28.90;89.80
52381;DHT22;38310;52.796;6.942;2022-08-21T12:54:30;28.10;89.10
52381;DHT22;38310;52.796;6.942;2022-08-21T12:57:05;27.70;90.60
52381;DHT22;38310;52.796;6.942;2022-08-21T12:59:32;27.20;90.60
52381;DHT22;38310;52.796;6.942;2022-08-21T13:02:00;28.10;91.30
52381;DHT22;38310;52.796;6.942;2022-08-21T13:04:34;28.80;92.30
52381;DHT22;38310;52.796;6.942;2022-08-21T13:07:07;29.10;91.50
52381;DHT22;38310;52.796;6.942;2022-08-21T13:09:50;27.60;90.30
52381;DHT22;38310;52.796;6.942;2022-08-21T13:12:18;27.80;91.80
52381;DHT22;38310;52.796;6.942;2022-08-21T13:14:45;27.60;92.00
52381;DHT22;38310;52.796;6.942;2022-08-21T13:17:20;27.40;91.90
52381;DHT22;38310;52.796;6.942;2022-08-21T13:19:54;27.10;92.70
52381;DHT22;38310;52.796;6.942;2022-08-21T13:22:20;26.90;92.30
52381;DHT22;38310;52.796;6.942;2022-08-21T13:24:47;26.60;92.00
52381;DHT22;38310;52.796;6.942;2022-08-21T13:27:22;26.50;92.80
52381;DHT22;38310;52.796;6.942;2022-08-21T13:30:01;26.50;92.60
52381;DHT22;38310;52.796;6.942;2022-08-21T13:32:30;26.70;93.80
52381;DHT22;38310;52.796;6.942;2022-08-21T13:34:57;26.70;93.20
52381;DHT22;38310;52.796;6.942;2022-08-21T13:37:26;26.60;93.50
52381;DHT22;38310;52.796;6.942;2022-08-21T13:39:54;26.80;94.10
52381;DHT22;38310;52.796;6.942;2022-08-21T13:42:20;26.90;93.50
52381;DHT22;38310;52.796;6.942;2022-08-21T13:44:47;26.70;93.30
52381;DHT22;38310;52.796;6.942;2022-08-21T13:47:15;26.60;93.40
52381;DHT22;38310;52.796;6.942;2022-08-21T13:49:47;26.60;93.90
52381;DHT22;38310;52.796;6.942;2022-08-21T13:52:19;26.40;93.30
52381;DHT22;38310;52.796;6.942;2022-08-21T13:54:54;25.90;93.60
52381;DHT22;38310;52.796;6.942;2022-08-21T13:57:31;26.40;94.70
52381;DHT22;38310;52.796;6.942;2022-08-21T14:00:12;26.80;94.60
52381;DHT22;38310;52.796;6.942;2022-08-21T14:02:41;27.30;92.70
52381;DHT22;38310;52.796;6.942;2022-08-21T14:05:43;27.40;93.10
52381;DHT22;38310;52.796;6.942;2022-08-21T14:08:20;27.60;92.50
52381;DHT22;38310;52.796;6.942;2022-08-21T14:10:50;27.50;93.00
52381;DHT22;38310;52.796;6.942;2022-08-21T14:13:46;27.40;93.30
52381;DHT22;38310;52.796;6.942;2022-08-21T14:16:18;27.20;94.00
52381;DHT22;38310;52.796;6.942;2022-08-21T14:21:24;26.50;94.10
52381;DHT22;38310;52.796;6.942;2022-08-21T14:24:12;26.20;94.10
52381;DHT22;38310;52.796;6.942;2022-08-21T14:29:18;26.20;95.30
52381;DHT22;38310;52.796;6.942;2022-08-21T14:31:53;25.90;95.50
52381;DHT22;38310;52.796;6.942;2022-08-21T14:34:21;26.00;94.90
52381;DHT22;38310;52.796;6.942;2022-08-21T14:36:49;26.10;95.80
52381;DHT22;38310;52.796;6.942;2022-08-21T14:39:16;26.10;96.20
52381;DHT22;38310;52.796;6.942;2022-08-21T14:41:42;26.10;96.50
52381;DHT22;38310;52.796;6.942;2022-08-21T14:44:08;26.00;95.90
52381;DHT22;38310;52.796;6.942;2022-08-21T14:46:34;25.90;95.80
52381;DHT22;38310;52.796;6.942;2022-08-21T14:49:02;25.80;95.90
52381;DHT22;38310;52.796;6.942;2022-08-21T14:51:28;25.60;96.20
52381;DHT22;38310;52.796;6.942;2022-08-21T14:53:53;25.50;96.40
52381;DHT22;38310;52.796;6.942;2022-08-21T14:56:19;25.40;96.60
52381;DHT22;38310;52.796;6.942;2022-08-21T14:58:48;25.70;97.50
52381;DHT22;38310;52.796;6.942;2022-08-21T15:01:16;25.80;97.20
52381;DHT22;38310;52.796;6.942;2022-08-21T15:03:44;26.00;97.70
52381;DHT22;38310;52.796;6.942;2022-08-21T15:06:10;26.00;97.70
52381;DHT22;38310;52.796;6.942;2022-08-21T15:08:36;26.10;97.60
52381;DHT22;38310;52.796;6.942;2022-08-21T15:11:03;26.10;98.20
52381;DHT22;38310;52.796;6.942;2022-08-21T15:13:30;26.10;98.20
52381;DHT22;38310;52.796;6.942;2022-08-21T15:15:56;26.10;98.10
52381;DHT22;38310;52.796;6.942;2022-08-21T15:18:24;26.00;98.20
52381;DHT22;38310;52.796;6.942;2022-08-21T15:20:50;25.90;98.10
52381;DHT22;38310;52.796;6.942;2022-08-21T15:23:17;25.90;98.40
52381;DHT22;38310;52.796;6.942;2022-08-21T15:25:45;25.80;98.30
52381;DHT22;38310;52.796;6.942;2022-08-21T15:30:55;25.10;98.70
52381;DHT22;38310;52.796;6.942;2022-08-21T15:33:21;25.80;99.30
52381;DHT22;38310;52.796;6.942;2022-08-21T15:35:47;25.70;99.10
52381;DHT22;38310;52.796;6.942;2022-08-21T15:38:14;25.70;99.40
52381;DHT22;38310;52.796;6.942;2022-08-21T15:40:42;25.60;99.40
52381;DHT22;38310;52.796;6.942;2022-08-21T15:43:25;25.60;99.60
52381;DHT22;38310;52.796;6.942;2022-08-21T15:45:52;25.50;99.50
52381;DHT22;38310;52.796;6.942;2022-08-21T15:48:18;25.70;99.70
52381;DHT22;38310;52.796;6.942;2022-08-21T15:50:44;25.70;99.50
52381;DHT22;38310;52.796;6.942;2022-08-21T15:53:10;25.70;99.50
52381;DHT22;38310;52.796;6.942;2022-08-21T15:55:36;25.60;99.90
52381;DHT22;38310;52.796;6.942;2022-08-21T15:58:03;25.50;99.70
52381;DHT22;38310;52.796;6.942;2022-08-21T16:00:32;25.40;99.90
52381;DHT22;38310;52.796;6.942;2022-08-21T16:02:59;25.30;99.90
52381;DHT22;38310;52.796;6.942;2022-08-21T16:05:26;25.20;99.90
52381;DHT22;38310;52.796;6.942;2022-08-21T16:07:54;25.30;99.90
52381;DHT22;38310;52.796;6.942;2022-08-21T16:10:22;25.20;99.70
52381;DHT22;38310;52.796;6.942;2022-08-21T16:12:56;25.10;99.80
52381;DHT22;38310;52.796;6.942;2022-08-21T16:15:23;25.20;99.90
52381;DHT22;38310;52.796;6.942;2022-08-21T16:17:51;25.30;99.90
52381;DHT22;38310;52.796;6.942;2022-08-21T16:20:20;25.30;99.80
52381;DHT22;38310;52.796;6.942;2022-08-21T16:22:47;25.30;99.70
52381;DHT22;38310;52.796;6.942;2022-08-21T16:25:14;25.30;99.90
52381;DHT22;38310;52.796;6.942;2022-08-21T16:27:42;25.30;99.90
52381;DHT22;38310;52.796;6.942;2022-08-21T16:30:09;25.10;99.90
52381;DHT22;38310;52.796;6.942;2022-08-21T16:32:35;25.10;99.90
52381;DHT22;38310;52.796;6.942;2022-08-21T16:35:02;25.00;99.90
52381;DHT22;38310;52.796;6.942;2022-08-21T16:37:28;24.90;99.80
52381;DHT22;38310;52.796;6.942;2022-08-21T16:39:54;24.90;99.90
52381;DHT22;38310;52.796;6.942;2022-08-21T16:42:25;24.80;99.90
52381;DHT22;38310;52.796;6.942;2022-08-21T16:44:52;24.70;99.70
52381;DHT22;38310;52.796;6.942;2022-08-21T16:47:18;24.50;99.90
52381;DHT22;38310;52.796;6.942;2022-08-21T16:49:43;24.50;99.90